sensor_id;sensor_type;location;lat;lon;timestamp;P1;durP1;ratioP1;P2;durP2;ratioP2
18857;SDS011;9558;50.178;8.370;2023-03-23T00:01:21;0.20;;;0.20;;
18857;SDS011;9558;50.178;8.370;2023-03-23T00:03:51;1.45;;;0.40;;
18857;SDS011;9558;50.178;8.370;2023-03-23T00:06:22;0.52;;;0.30;;
18857;SDS011;9558;50.178;8.370;2023-03-23T00:08:51;1.65;;;0.50;;
18857;SDS011;9558;50.178;8.370;2023-03-23T00:11:22;0.70;;;0.30;;
18857;SDS011;9558;50.178;8.370;2023-03-23T00:13:51;0.45;;;0.32;;
18857;SDS011;9558;50.178;8.370;2023-03-23T00:16:20;2.65;;;0.50;;
18857;SDS011;9558;50.178;8.370;2023-03-23T00:18:55;1.05;;;0.35;;
18857;SDS011;9558;50.178;8.370;2023-03-23T00:21:23;0.20;;;0.20;;
18857;SDS011;9558;50.178;8.370;2023-03-23T00:23:59;0.50;;;0.22;;
18857;SDS011;9558;50.178;8.370;2023-03-23T00:26:26;1.65;;;0.50;;
18857;SDS011;9558;50.178;8.370;2023-03-23T00:28:54;0.40;;;0.40;;
18857;SDS011;9558;50.178;8.370;2023-03-23T00:31:21;0.88;;;0.30;;
18857;SDS011;9558;50.178;8.370;2023-03-23T00:33:48;0.80;;;0.40;;
18857;SDS011;9558;50.178;8.370;2023-03-23T00:36:14;0.55;;;0.40;;
18857;SDS011;9558;50.178;8.370;2023-03-23T00:38:42;0.50;;;0.30;;
18857;SDS011;9558;50.178;8.370;2023-03-23T00:41:10;0.52;;;0.25;;
18857;SDS011;9558;50.178;8.370;2023-03-23T00:43:37;0.40;;;0.30;;
18857;SDS011;9558;50.178;8.370;2023-03-23T00:46:04;0.55;;;0.28;;
18857;SDS011;9558;50.178;8.370;2023-03-23T00:48:35;0.55;;;0.30;;
18857;SDS011;9558;50.178;8.370;2023-03-23T00:51:05;0.40;;;0.35;;
18857;SDS011;9558;50.178;8.370;2023-03-23T00:53:35;2.78;;;0.30;;
18857;SDS011;9558;50.178;8.370;2023-03-23T00:56:01;3.08;;;0.35;;
18857;SDS011;9558;50.178;8.370;2023-03-23T00:58:29;1.02;;;0.70;;
18857;SDS011;9558;50.178;8.370;2023-03-23T01:00:56;0.50;;;0.40;;
18857;SDS011;9558;50.178;8.370;2023-03-23T01:03:22;0.40;;;0.30;;
18857;SDS011;9558;50.178;8.370;2023-03-23T01:05:51;3.42;;;0.45;;
18857;SDS011;9558;50.178;8.370;2023-03-23T01:10:46;1.17;;;0.60;;
18857;SDS011;9558;50.178;8.370;2023-03-23T01:13:13;1.15;;;0.32;;
18857;SDS011;9558;50.178;8.370;2023-03-23T01:15:42;1.13;;;0.28;;
18857;SDS011;9558;50.178;8.370;2023-03-23T01:18:09;2.17;;;0.40;;
18857;SDS011;9558;50.178;8.370;2023-03-23T01:20:35;1.45;;;0.40;;
18857;SDS011;9558;50.178;8.370;2023-03-23T01:23:03;0.88;;;0.40;;
18857;SDS011;9558;50.178;8.370;2023-03-23T01:25:30;0.85;;;0.22;;
18857;SDS011;9558;50.178;8.370;2023-03-23T01:27:58;0.38;;;0.30;;
18857;SDS011;9558;50.178;8.370;2023-03-23T01:30:25;1.00;;;0.50;;
18857;SDS011;9558;50.178;8.370;2023-03-23T01:32:54;3.28;;;0.57;;
18857;SDS011;9558;50.178;8.370;2023-03-23T01:35:20;0.63;;;0.45;;
18857;SDS011;9558;50.178;8.370;2023-03-23T01:37:47;1.67;;;0.20;;
18857;SDS011;9558;50.178;8.370;2023-03-23T01:40:14;0.35;;;0.20;;
18857;SDS011;9558;50.178;8.370;2023-03-23T01:42:42;1.95;;;0.63;;
18857;SDS011;9558;50.178;8.370;2023-03-23T01:45:20;0.40;;;0.40;;
18857;SDS011;9558;50.178;8.370;2023-03-23T01:47:51;0.90;;;0.30;;
18857;SDS011;9558;50.178;8.370;2023-03-23T01:50:22;0.93;;;0.50;;
18857;SDS011;9558;50.178;8.370;2023-03-23T01:52:51;2.30;;;0.30;;
18857;SDS011;9558;50.178;8.370;2023-03-23T01:55:19;0.35;;;0.20;;
18857;SDS011;9558;50.178;8.370;2023-03-23T01:57:47;2.03;;;0.65;;
18857;SDS011;9558;50.178;8.370;2023-03-23T02:02:42;6.68;;;0.40;;
18857;SDS011;9558;50.178;8.370;2023-03-23T02:05:13;0.30;;;0.20;;
18857;SDS011;9558;50.178;8.370;2023-03-23T02:07:44;0.70;;;0.32;;
18857;SDS011;9558;50.178;8.370;2023-03-23T02:10:12;0.60;;;0.20;;
18857;SDS011;9558;50.178;8.370;2023-03-23T02:12:39;0.20;;;0.20;;
18857;SDS011;9558;50.178;8.370;2023-03-23T02:15:06;0.47;;;0.40;;
18857;SDS011;9558;50.178;8.370;2023-03-23T02:17:34;0.55;;;0.40;;
18857;SDS011;9558;50.178;8.370;2023-03-23T02:20:11;0.98;;;0.47;;
18857;SDS011;9558;50.178;8.370;2023-03-23T02:22:53;0.28;;;0.28;;
18857;SDS011;9558;50.178;8.370;2023-03-23T02:28:34;0.38;;;0.25;;
18857;SDS011;9558;50.178;8.370;2023-03-23T02:31:17;3.00;;;0.50;;
18857;SDS011;9558;50.178;8.370;2023-03-23T02:33:55;1.10;;;0.38;;
18857;SDS011;9558;50.178;8.370;2023-03-23T02:36:26;1.15;;;0.30;;
18857;SDS011;9558;50.178;8.370;2023-03-23T02:38:57;2.00;;;0.40;;
18857;SDS011;9558;50.178;8.370;2023-03-23T02:41:31;0.88;;;0.60;;
18857;SDS011;9558;50.178;8.370;2023-03-23T02:44:00;4.65;;;0.40;;
18857;SDS011;9558;50.178;8.370;2023-03-23T02:46:29;1.55;;;0.40;;
18857;SDS011;9558;50.178;8.370;2023-03-23T02:48:58;0.40;;;0.40;;
18857;SDS011;9558;50.178;8.370;2023-03-23T02:51:26;1.02;;;0.28;;
18857;SDS011;9558;50.178;8.370;2023-03-23T02:53:54;0.52;;;0.30;;
18857;SDS011;9558;50.178;8.370;2023-03-23T02:56:22;1.55;;;0.50;;
18857;SDS011;9558;50.178;8.370;2023-03-23T02:58:51;0.38;;;0.20;;
18857;SDS011;9558;50.178;8.370;2023-03-23T03:04:18;0.80;;;0.40;;
18857;SDS011;9558;50.178;8.370;2023-03-23T03:06:50;0.25;;;0.20;;
18857;SDS011;9558;50.178;8.370;2023-03-23T03:09:26;0.43;;;0.30;;
18857;SDS011;9558;50.178;8.370;2023-03-23T03:12:04;1.35;;;0.40;;
18857;SDS011;9558;50.178;8.370;2023-03-23T03:14:37;0.98;;;0.20;;
18857;SDS011;9558;50.178;8.370;2023-03-23T03:17:10;0.43;;;0.20;;
18857;SDS011;9558;50.178;8.370;2023-03-23T03:19:46;1.58;;;0.43;;
18857;SDS011;9558;50.178;8.370;2023-03-23T03:22:16;4.07;;;0.70;;
18857;SDS011;9558;50.178;8.370;2023-03-23T03:24:46;0.30;;;0.28;;
18857;SDS011;9558;50.178;8.370;2023-03-23T03:27:15;0.30;;;0.30;;
18857;SDS011;9558;50.178;8.370;2023-03-23T03:29:45;0.95;;;0.15;;
18857;SDS011;9558;50.178;8.370;2023-03-23T03:32:16;1.02;;;0.32;;
18857;SDS011;9558;50.178;8.370;2023-03-23T03:34:47;1.42;;;0.50;;
18857;SDS011;9558;50.178;8.370;2023-03-23T03:37:15;2.17;;;0.55;;
18857;SDS011;9558;50.178;8.370;2023-03-23T03:39:43;2.15;;;0.65;;
18857;SDS011;9558;50.178;8.370;2023-03-23T03:42:10;4.95;;;0.50;;
18857;SDS011;9558;50.178;8.370;2023-03-23T03:44:37;0.63;;;0.25;;
18857;SDS011;9558;50.178;8.370;2023-03-23T03:47:03;1.20;;;0.60;;
18857;SDS011;9558;50.178;8.370;2023-03-23T03:49:30;0.63;;;0.22;;
18857;SDS011;9558;50.178;8.370;2023-03-23T03:51:58;0.70;;;0.40;;
18857;SDS011;9558;50.178;8.370;2023-03-23T03:54:24;0.70;;;0.40;;
18857;SDS011;9558;50.178;8.370;2023-03-23T03:56:51;0.80;;;0.40;;
18857;SDS011;9558;50.178;8.370;2023-03-23T03:59:22;1.17;;;0.63;;
18857;SDS011;9558;50.178;8.370;2023-03-23T04:01:49;0.32;;;0.30;;
18857;SDS011;9558;50.178;8.370;2023-03-23T04:04:19;1.27;;;0.22;;
18857;SDS011;9558;50.178;8.370;2023-03-23T04:06:45;0.73;;;0.40;;
18857;SDS011;9558;50.178;8.370;2023-03-23T04:09:15;0.80;;;0.40;;
18857;SDS011;9558;50.178;8.370;2023-03-23T04:11:41;0.28;;;0.25;;
18857;SDS011;9558;50.178;8.370;2023-03-23T04:14:08;1.48;;;0.52;;
18857;SDS011;9558;50.178;8.370;2023-03-23T04:16:35;0.90;;;0.40;;
18857;SDS011;9558;50.178;8.370;2023-03-23T04:19:01;1.40;;;0.55;;
18857;SDS011;9558;50.178;8.370;2023-03-23T04:21:28;0.40;;;0.32;;
18857;SDS011;9558;50.178;8.370;2023-03-23T04:23:55;0.45;;;0.30;;
18857;SDS011;9558;50.178;8.370;2023-03-23T04:26:25;1.48;;;0.55;;
18857;SDS011;9558;50.178;8.370;2023-03-23T04:28:53;0.40;;;0.40;;
18857;SDS011;9558;50.178;8.370;2023-03-23T04:31:20;0.80;;;0.43;;
18857;SDS011;9558;50.178;8.370;2023-03-23T04:33:49;1.67;;;0.73;;
18857;SDS011;9558;50.178;8.370;2023-03-23T04:36:17;0.30;;;0.25;;
18857;SDS011;9558;50.178;8.370;2023-03-23T04:38:44;0.40;;;0.40;;
18857;SDS011;9558;50.178;8.370;2023-03-23T04:41:11;1.25;;;0.45;;
18857;SDS011;9558;50.178;8.370;2023-03-23T04:43:39;0.38;;;0.30;;
18857;SDS011;9558;50.178;8.370;2023-03-23T04:46:07;0.90;;;0.50;;
18857;SDS011;9558;50.178;8.370;2023-03-23T04:51:03;0.15;;;0.10;;
18857;SDS011;9558;50.178;8.370;2023-03-23T04:53:31;0.10;;;0.10;;
18857;SDS011;9558;50.178;8.370;2023-03-23T04:55:58;0.30;;;0.30;;
18857;SDS011;9558;50.178;8.370;2023-03-23T04:58:26;1.33;;;0.28;;
18857;SDS011;9558;50.178;8.370;2023-03-23T05:00:54;0.30;;;0.30;;
18857;SDS011;9558;50.178;8.370;2023-03-23T05:03:21;0.52;;;0.40;;
18857;SDS011;9558;50.178;8.370;2023-03-23T05:05:47;0.75;;;0.50;;
18857;SDS011;9558;50.178;8.370;2023-03-23T05:08:17;1.55;;;0.30;;
18857;SDS011;9558;50.178;8.370;2023-03-23T05:13:15;1.95;;;0.52;;
18857;SDS011;9558;50.178;8.370;2023-03-23T05:15:41;3.33;;;0.50;;
18857;SDS011;9558;50.178;8.370;2023-03-23T05:18:09;1.50;;;0.38;;
18857;SDS011;9558;50.178;8.370;2023-03-23T05:20:36;1.10;;;0.32;;
18857;SDS011;9558;50.178;8.370;2023-03-23T05:23:02;1.42;;;0.93;;
18857;SDS011;9558;50.178;8.370;2023-03-23T05:25:29;0.63;;;0.30;;
18857;SDS011;9558;50.178;8.370;2023-03-23T05:27:57;1.08;;;0.50;;
18857;SDS011;9558;50.178;8.370;2023-03-23T05:30:25;0.40;;;0.40;;
18857;SDS011;9558;50.178;8.370;2023-03-23T05:35:20;2.28;;;0.50;;
18857;SDS011;9558;50.178;8.370;2023-03-23T05:37:47;0.65;;;0.35;;
18857;SDS011;9558;50.178;8.370;2023-03-23T05:40:14;1.80;;;0.47;;
18857;SDS011;9558;50.178;8.370;2023-03-23T05:42:41;1.73;;;0.28;;
18857;SDS011;9558;50.178;8.370;2023-03-23T05:45:10;1.05;;;0.55;;
18857;SDS011;9558;50.178;8.370;2023-03-23T05:47:37;0.40;;;0.30;;
18857;SDS011;9558;50.178;8.370;2023-03-23T05:50:04;0.85;;;0.50;;
18857;SDS011;9558;50.178;8.370;2023-03-23T05:52:33;1.90;;;1.00;;
18857;SDS011;9558;50.178;8.370;2023-03-23T05:55:00;2.55;;;0.55;;
18857;SDS011;9558;50.178;8.370;2023-03-23T05:57:28;0.73;;;0.45;;
18857;SDS011;9558;50.178;8.370;2023-03-23T05:59:55;0.65;;;0.50;;
18857;SDS011;9558;50.178;8.370;2023-03-23T06:02:22;0.32;;;0.25;;
18857;SDS011;9558;50.178;8.370;2023-03-23T06:04:49;1.77;;;0.55;;
18857;SDS011;9558;50.178;8.370;2023-03-23T06:07:22;1.20;;;0.60;;
18857;SDS011;9558;50.178;8.370;2023-03-23T06:09:50;0.45;;;0.43;;
18857;SDS011;9558;50.178;8.370;2023-03-23T06:12:17;2.22;;;0.40;;
18857;SDS011;9558;50.178;8.370;2023-03-23T06:14:45;1.17;;;0.40;;
18857;SDS011;9558;50.178;8.370;2023-03-23T06:17:11;0.50;;;0.30;;
18857;SDS011;9558;50.178;8.370;2023-03-23T06:19:38;0.90;;;0.60;;
18857;SDS011;9558;50.178;8.370;2023-03-23T06:22:04;0.65;;;0.50;;
18857;SDS011;9558;50.178;8.370;2023-03-23T06:24:31;0.40;;;0.40;;
18857;SDS011;9558;50.178;8.370;2023-03-23T06:27:00;0.63;;;0.47;;
18857;SDS011;9558;50.178;8.370;2023-03-23T06:29:27;2.20;;;0.60;;
18857;SDS011;9558;50.178;8.370;2023-03-23T06:31:55;1.00;;;0.57;;
18857;SDS011;9558;50.178;8.370;2023-03-23T06:34:24;1.85;;;0.77;;
18857;SDS011;9558;50.178;8.370;2023-03-23T06:36:51;0.82;;;0.70;;
18857;SDS011;9558;50.178;8.370;2023-03-23T06:39:18;0.82;;;0.60;;
18857;SDS011;9558;50.178;8.370;2023-03-23T06:41:45;1.42;;;0.80;;
18857;SDS011;9558;50.178;8.370;2023-03-23T06:44:13;1.02;;;0.80;;
18857;SDS011;9558;50.178;8.370;2023-03-23T06:46:39;0.90;;;0.50;;
18857;SDS011;9558;50.178;8.370;2023-03-23T06:49:06;2.10;;;0.43;;
18857;SDS011;9558;50.178;8.370;2023-03-23T06:51:34;0.60;;;0.60;;
18857;SDS011;9558;50.178;8.370;2023-03-23T06:54:00;1.92;;;0.90;;
18857;SDS011;9558;50.178;8.370;2023-03-23T06:56:27;0.77;;;0.60;;
18857;SDS011;9558;50.178;8.370;2023-03-23T06:58:53;0.70;;;0.70;;
18857;SDS011;9558;50.178;8.370;2023-03-23T07:01:21;0.85;;;0.60;;
18857;SDS011;9558;50.178;8.370;2023-03-23T07:03:48;3.90;;;0.90;;
18857;SDS011;9558;50.178;8.370;2023-03-23T07:06:14;1.55;;;0.52;;
18857;SDS011;9558;50.178;8.370;2023-03-23T07:08:41;0.60;;;0.60;;
18857;SDS011;9558;50.178;8.370;2023-03-23T07:11:08;2.33;;;0.73;;
18857;SDS011;9558;50.178;8.370;2023-03-23T07:13:35;0.55;;;0.52;;
18857;SDS011;9558;50.178;8.370;2023-03-23T07:16:04;1.77;;;0.50;;
18857;SDS011;9558;50.178;8.370;2023-03-23T07:18:33;3.80;;;0.80;;
18857;SDS011;9558;50.178;8.370;2023-03-23T07:20:59;2.00;;;0.90;;
18857;SDS011;9558;50.178;8.370;2023-03-23T07:23:26;1.23;;;0.82;;
18857;SDS011;9558;50.178;8.370;2023-03-23T07:25:54;1.27;;;0.82;;
18857;SDS011;9558;50.178;8.370;2023-03-23T07:28:22;1.85;;;0.47;;
18857;SDS011;9558;50.178;8.370;2023-03-23T07:30:48;3.47;;;0.90;;
18857;SDS011;9558;50.178;8.370;2023-03-23T07:33:15;0.63;;;0.50;;
18857;SDS011;9558;50.178;8.370;2023-03-23T07:35:43;0.75;;;0.50;;
18857;SDS011;9558;50.178;8.370;2023-03-23T07:38:10;1.13;;;0.90;;
18857;SDS011;9558;50.178;8.370;2023-03-23T07:40:37;0.70;;;0.60;;
18857;SDS011;9558;50.178;8.370;2023-03-23T07:43:03;0.50;;;0.43;;
18857;SDS011;9558;50.178;8.370;2023-03-23T07:45:30;1.52;;;0.50;;
18857;SDS011;9558;50.178;8.370;2023-03-23T07:47:57;0.40;;;0.40;;
18857;SDS011;9558;50.178;8.370;2023-03-23T07:50:24;0.65;;;0.60;;
18857;SDS011;9558;50.178;8.370;2023-03-23T07:52:56;0.60;;;0.60;;
18857;SDS011;9558;50.178;8.370;2023-03-23T07:55:24;7.82;;;0.70;;
18857;SDS011;9558;50.178;8.370;2023-03-23T07:57:53;2.22;;;0.60;;
18857;SDS011;9558;50.178;8.370;2023-03-23T08:00:21;0.85;;;0.63;;
18857;SDS011;9558;50.178;8.370;2023-03-23T08:02:49;1.05;;;0.80;;
18857;SDS011;9558;50.178;8.370;2023-03-23T08:05:17;1.30;;;0.70;;
18857;SDS011;9558;50.178;8.370;2023-03-23T08:07:45;1.55;;;0.98;;
18857;SDS011;9558;50.178;8.370;2023-03-23T08:10:14;1.25;;;0.80;;
18857;SDS011;9558;50.178;8.370;2023-03-23T08:12:43;0.90;;;0.80;;
18857;SDS011;9558;50.178;8.370;2023-03-23T08:15:11;0.77;;;0.60;;
18857;SDS011;9558;50.178;8.370;2023-03-23T08:17:40;1.13;;;0.80;;
18857;SDS011;9558;50.178;8.370;2023-03-23T08:20:07;1.23;;;1.08;;
18857;SDS011;9558;50.178;8.370;2023-03-23T08:22:38;2.17;;;0.88;;
18857;SDS011;9558;50.178;8.370;2023-03-23T08:25:05;1.95;;;0.85;;
18857;SDS011;9558;50.178;8.370;2023-03-23T08:27:35;3.25;;;1.00;;
18857;SDS011;9558;50.178;8.370;2023-03-23T08:30:03;1.10;;;0.98;;
18857;SDS011;9558;50.178;8.370;2023-03-23T08:32:32;2.22;;;1.10;;
18857;SDS011;9558;50.178;8.370;2023-03-23T08:34:59;2.15;;;0.70;;
18857;SDS011;9558;50.178;8.370;2023-03-23T08:37:26;1.20;;;0.80;;
18857;SDS011;9558;50.178;8.370;2023-03-23T08:39:53;2.03;;;1.02;;
18857;SDS011;9558;50.178;8.370;2023-03-23T08:42:20;0.70;;;0.50;;
18857;SDS011;9558;50.178;8.370;2023-03-23T08:44:48;0.90;;;0.73;;
18857;SDS011;9558;50.178;8.370;2023-03-23T08:47:15;4.35;;;1.25;;
18857;SDS011;9558;50.178;8.370;2023-03-23T08:49:42;1.35;;;1.10;;
18857;SDS011;9558;50.178;8.370;2023-03-23T08:52:10;1.30;;;0.90;;
18857;SDS011;9558;50.178;8.370;2023-03-23T08:54:37;1.45;;;1.23;;
18857;SDS011;9558;50.178;8.370;2023-03-23T08:57:04;1.17;;;0.90;;
18857;SDS011;9558;50.178;8.370;2023-03-23T08:59:30;0.70;;;0.70;;
18857;SDS011;9558;50.178;8.370;2023-03-23T09:01:58;1.25;;;0.82;;
18857;SDS011;9558;50.178;8.370;2023-03-23T09:04:25;3.00;;;0.95;;
18857;SDS011;9558;50.178;8.370;2023-03-23T09:06:54;2.17;;;1.20;;
18857;SDS011;9558;50.178;8.370;2023-03-23T09:09:21;1.05;;;0.55;;
18857;SDS011;9558;50.178;8.370;2023-03-23T09:11:47;5.47;;;1.20;;
18857;SDS011;9558;50.178;8.370;2023-03-23T09:14:14;2.25;;;0.95;;
18857;SDS011;9558;50.178;8.370;2023-03-23T09:16:41;1.67;;;0.65;;
18857;SDS011;9558;50.178;8.370;2023-03-23T09:19:08;0.65;;;0.63;;
18857;SDS011;9558;50.178;8.370;2023-03-23T09:21:35;0.77;;;0.55;;
18857;SDS011;9558;50.178;8.370;2023-03-23T09:24:02;0.52;;;0.52;;
18857;SDS011;9558;50.178;8.370;2023-03-23T09:26:29;1.35;;;0.82;;
18857;SDS011;9558;50.178;8.370;2023-03-23T09:28:56;0.95;;;0.80;;
18857;SDS011;9558;50.178;8.370;2023-03-23T09:31:23;3.80;;;0.80;;
18857;SDS011;9558;50.178;8.370;2023-03-23T09:33:51;2.55;;;0.70;;
18857;SDS011;9558;50.178;8.370;2023-03-23T09:36:19;1.83;;;0.95;;
18857;SDS011;9558;50.178;8.370;2023-03-23T09:38:46;1.58;;;0.80;;
18857;SDS011;9558;50.178;8.370;2023-03-23T09:43:55;1.08;;;0.73;;
18857;SDS011;9558;50.178;8.370;2023-03-23T09:46:33;1.38;;;0.88;;
18857;SDS011;9558;50.178;8.370;2023-03-23T09:49:08;0.73;;;0.60;;
18857;SDS011;9558;50.178;8.370;2023-03-23T09:51:42;0.40;;;0.40;;
18857;SDS011;9558;50.178;8.370;2023-03-23T09:54:14;0.73;;;0.47;;
18857;SDS011;9558;50.178;8.370;2023-03-23T09:56:45;0.95;;;0.57;;
18857;SDS011;9558;50.178;8.370;2023-03-23T09:59:16;1.00;;;0.50;;
18857;SDS011;9558;50.178;8.370;2023-03-23T10:01:48;0.98;;;0.45;;
18857;SDS011;9558;50.178;8.370;2023-03-23T10:04:21;0.75;;;0.52;;
18857;SDS011;9558;50.178;8.370;2023-03-23T10:06:57;1.10;;;0.68;;
18857;SDS011;9558;50.178;8.370;2023-03-23T10:09:25;0.40;;;0.30;;
18857;SDS011;9558;50.178;8.370;2023-03-23T10:11:56;0.22;;;0.10;;
18857;SDS011;9558;50.178;8.370;2023-03-23T10:14:33;0.25;;;0.25;;
18857;SDS011;9558;50.178;8.370;2023-03-23T10:17:13;0.43;;;0.28;;
18857;SDS011;9558;50.178;8.370;2023-03-23T10:19:43;0.55;;;0.40;;
18857;SDS011;9558;50.178;8.370;2023-03-23T10:22:17;1.10;;;0.32;;
18857;SDS011;9558;50.178;8.370;2023-03-23T10:25:01;0.22;;;0.22;;
18857;SDS011;9558;50.178;8.370;2023-03-23T10:27:33;1.65;;;0.50;;
18857;SDS011;9558;50.178;8.370;2023-03-23T10:30:03;0.60;;;0.35;;
18857;SDS011;9558;50.178;8.370;2023-03-23T10:32:41;0.25;;;0.20;;
18857;SDS011;9558;50.178;8.370;2023-03-23T10:35:11;0.20;;;0.17;;
18857;SDS011;9558;50.178;8.370;2023-03-23T10:37:43;0.22;;;0.22;;
18857;SDS011;9558;50.178;8.370;2023-03-23T10:40:14;0.95;;;0.20;;
18857;SDS011;9558;50.178;8.370;2023-03-23T10:42:43;0.35;;;0.35;;
18857;SDS011;9558;50.178;8.370;2023-03-23T10:45:12;0.73;;;0.13;;
18857;SDS011;9558;50.178;8.370;2023-03-23T10:47:45;0.50;;;0.20;;
18857;SDS011;9558;50.178;8.370;2023-03-23T10:50:16;0.95;;;0.20;;
18857;SDS011;9558;50.178;8.370;2023-03-23T10:52:45;0.13;;;0.13;;
18857;SDS011;9558;50.178;8.370;2023-03-23T10:55:13;0.77;;;0.30;;
18857;SDS011;9558;50.178;8.370;2023-03-23T10:57:41;0.13;;;0.13;;
18857;SDS011;9558;50.178;8.370;2023-03-23T11:00:16;0.43;;;0.28;;
18857;SDS011;9558;50.178;8.370;2023-03-23T11:02:46;2.30;;;0.20;;
18857;SDS011;9558;50.178;8.370;2023-03-23T11:05:16;0.28;;;0.10;;
18857;SDS011;9558;50.178;8.370;2023-03-23T11:07:51;0.85;;;0.20;;
18857;SDS011;9558;50.178;8.370;2023-03-23T11:10:21;0.47;;;0.20;;
18857;SDS011;9558;50.178;8.370;2023-03-23T11:12:51;0.85;;;0.15;;
18857;SDS011;9558;50.178;8.370;2023-03-23T11:15:25;0.22;;;0.20;;
18857;SDS011;9558;50.178;8.370;2023-03-23T11:17:56;0.13;;;0.10;;
18857;SDS011;9558;50.178;8.370;2023-03-23T11:20:23;0.10;;;0.10;;
18857;SDS011;9558;50.178;8.370;2023-03-23T11:22:53;0.17;;;0.13;;
18857;SDS011;9558;50.178;8.370;2023-03-23T11:25:20;0.20;;;0.15;;
18857;SDS011;9558;50.178;8.370;2023-03-23T11:27:47;0.73;;;0.20;;
18857;SDS011;9558;50.178;8.370;2023-03-23T11:30:19;0.10;;;0.10;;
18857;SDS011;9558;50.178;8.370;2023-03-23T11:35:18;0.38;;;0.20;;
18857;SDS011;9558;50.178;8.370;2023-03-23T11:37:47;0.50;;;0.20;;
18857;SDS011;9558;50.178;8.370;2023-03-23T11:40:19;0.03;;;0.03;;
18857;SDS011;9558;50.178;8.370;2023-03-23T11:42:48;3.22;;;0.47;;
18857;SDS011;9558;50.178;8.370;2023-03-23T11:45:24;1.42;;;0.30;;
18857;SDS011;9558;50.178;8.370;2023-03-23T11:48:01;0.82;;;0.20;;
18857;SDS011;9558;50.178;8.370;2023-03-23T11:50:43;0.47;;;0.20;;
18857;SDS011;9558;50.178;8.370;2023-03-23T11:53:15;3.78;;;0.20;;
18857;SDS011;9558;50.178;8.370;2023-03-23T11:55:55;0.52;;;0.40;;
18857;SDS011;9558;50.178;8.370;2023-03-23T11:58:37;0.47;;;0.40;;
18857;SDS011;9558;50.178;8.370;2023-03-23T12:01:05;0.20;;;0.20;;
18857;SDS011;9558;50.178;8.370;2023-03-23T12:03:49;0.20;;;0.20;;
18857;SDS011;9558;50.178;8.370;2023-03-23T12:06:27;3.92;;;0.30;;
18857;SDS011;9558;50.178;8.370;2023-03-23T12:09:08;0.20;;;0.20;;
18857;SDS011;9558;50.178;8.370;2023-03-23T12:11:49;0.47;;;0.30;;
18857;SDS011;9558;50.178;8.370;2023-03-23T12:14:25;0.45;;;0.30;;
18857;SDS011;9558;50.178;8.370;2023-03-23T12:17:01;0.10;;;0.10;;
18857;SDS011;9558;50.178;8.370;2023-03-23T12:19:39;0.10;;;0.10;;
18857;SDS011;9558;50.178;8.370;2023-03-23T12:22:15;0.22;;;0.22;;
18857;SDS011;9558;50.178;8.370;2023-03-23T12:24:55;0.10;;;0.10;;
18857;SDS011;9558;50.178;8.370;2023-03-23T12:27:37;0.10;;;0.10;;
18857;SDS011;9558;50.178;8.370;2023-03-23T12:30:20;0.35;;;0.00;;
18857;SDS011;9558;50.178;8.370;2023-03-23T12:35:39;0.85;;;0.20;;
18857;SDS011;9558;50.178;8.370;2023-03-23T12:41:11;1.08;;;0.50;;
18857;SDS011;9558;50.178;8.370;2023-03-23T12:43:46;0.20;;;0.17;;
18857;SDS011;9558;50.178;8.370;2023-03-23T12:46:23;1.23;;;0.40;;
18857;SDS011;9558;50.178;8.370;2023-03-23T12:49:11;0.20;;;0.20;;
18857;SDS011;9558;50.178;8.370;2023-03-23T12:51:44;1.35;;;0.68;;
18857;SDS011;9558;50.178;8.370;2023-03-23T12:54:16;0.45;;;0.30;;
18857;SDS011;9558;50.178;8.370;2023-03-23T12:56:49;0.30;;;0.20;;
18857;SDS011;9558;50.178;8.370;2023-03-23T12:59:25;0.50;;;0.20;;
18857;SDS011;9558;50.178;8.370;2023-03-23T13:02:01;1.33;;;0.43;;
18857;SDS011;9558;50.178;8.370;2023-03-23T13:04:37;0.15;;;0.15;;
18857;SDS011;9558;50.178;8.370;2023-03-23T13:07:10;0.22;;;0.20;;
18857;SDS011;9558;50.178;8.370;2023-03-23T13:09:45;0.73;;;0.20;;
18857;SDS011;9558;50.178;8.370;2023-03-23T13:12:16;0.30;;;0.15;;
18857;SDS011;9558;50.178;8.370;2023-03-23T13:14:49;0.30;;;0.20;;
18857;SDS011;9558;50.178;8.370;2023-03-23T13:17:25;0.20;;;0.20;;
18857;SDS011;9558;50.178;8.370;2023-03-23T13:20:02;0.20;;;0.20;;
18857;SDS011;9558;50.178;8.370;2023-03-23T13:22:42;0.40;;;0.20;;
18857;SDS011;9558;50.178;8.370;2023-03-23T13:25:17;0.20;;;0.20;;
18857;SDS011;9558;50.178;8.370;2023-03-23T13:27:56;0.25;;;0.20;;
18857;SDS011;9558;50.178;8.370;2023-03-23T13:30:25;0.43;;;0.20;;
18857;SDS011;9558;50.178;8.370;2023-03-23T13:33:00;1.45;;;0.30;;
18857;SDS011;9558;50.178;8.370;2023-03-23T13:35:32;0.57;;;0.20;;
18857;SDS011;9558;50.178;8.370;2023-03-23T13:38:10;0.45;;;0.30;;
18857;SDS011;9558;50.178;8.370;2023-03-23T13:40:42;0.10;;;0.10;;
18857;SDS011;9558;50.178;8.370;2023-03-23T13:43:10;0.55;;;0.20;;
18857;SDS011;9558;50.178;8.370;2023-03-23T13:48:18;3.65;;;0.30;;
18857;SDS011;9558;50.178;8.370;2023-03-23T13:50:50;0.40;;;0.30;;
18857;SDS011;9558;50.178;8.370;2023-03-23T13:53:23;0.30;;;0.20;;
18857;SDS011;9558;50.178;8.370;2023-03-23T13:56:07;0.82;;;0.30;;
18857;SDS011;9558;50.178;8.370;2023-03-23T13:58:46;2.08;;;0.30;;
18857;SDS011;9558;50.178;8.370;2023-03-23T14:01:17;1.45;;;0.28;;
18857;SDS011;9558;50.178;8.370;2023-03-23T14:03:47;0.13;;;0.13;;
18857;SDS011;9558;50.178;8.370;2023-03-23T14:06:16;0.20;;;0.20;;
18857;SDS011;9558;50.178;8.370;2023-03-23T14:08:47;0.20;;;0.20;;
18857;SDS011;9558;50.178;8.370;2023-03-23T14:11:19;0.57;;;0.20;;
18857;SDS011;9558;50.178;8.370;2023-03-23T14:13:57;0.20;;;0.20;;
18857;SDS011;9558;50.178;8.370;2023-03-23T14:16:31;0.28;;;0.20;;
18857;SDS011;9558;50.178;8.370;2023-03-23T14:19:02;0.95;;;0.40;;
18857;SDS011;9558;50.178;8.370;2023-03-23T14:21:32;1.05;;;0.30;;
18857;SDS011;9558;50.178;8.370;2023-03-23T14:24:02;0.70;;;0.30;;
18857;SDS011;9558;50.178;8.370;2023-03-23T14:26:32;1.50;;;0.40;;
18857;SDS011;9558;50.178;8.370;2023-03-23T14:29:00;0.30;;;0.15;;
18857;SDS011;9558;50.178;8.370;2023-03-23T14:31:27;0.60;;;0.30;;
18857;SDS011;9558;50.178;8.370;2023-03-23T14:33:56;0.20;;;0.20;;
18857;SDS011;9558;50.178;8.370;2023-03-23T14:36:28;0.68;;;0.30;;
18857;SDS011;9558;50.178;8.370;2023-03-23T14:38:58;0.22;;;0.20;;
18857;SDS011;9558;50.178;8.370;2023-03-23T14:41:28;0.30;;;0.30;;
18857;SDS011;9558;50.178;8.370;2023-03-23T14:43:56;0.43;;;0.40;;
18857;SDS011;9558;50.178;8.370;2023-03-23T14:46:25;0.63;;;0.30;;
18857;SDS011;9558;50.178;8.370;2023-03-23T14:48:52;0.30;;;0.30;;
18857;SDS011;9558;50.178;8.370;2023-03-23T14:51:20;0.45;;;0.35;;
18857;SDS011;9558;50.178;8.370;2023-03-23T14:53:47;1.60;;;0.30;;
18857;SDS011;9558;50.178;8.370;2023-03-23T14:56:16;0.30;;;0.30;;
18857;SDS011;9558;50.178;8.370;2023-03-23T14:58:49;0.30;;;0.30;;
18857;SDS011;9558;50.178;8.370;2023-03-23T15:01:18;0.60;;;0.40;;
18857;SDS011;9558;50.178;8.370;2023-03-23T15:03:48;0.25;;;0.22;;
18857;SDS011;9558;50.178;8.370;2023-03-23T15:06:19;0.57;;;0.43;;
18857;SDS011;9558;50.178;8.370;2023-03-23T15:08:51;0.85;;;0.35;;
18857;SDS011;9558;50.178;8.370;2023-03-23T15:11:22;0.30;;;0.30;;
18857;SDS011;9558;50.178;8.370;2023-03-23T15:13:53;1.95;;;0.50;;
18857;SDS011;9558;50.178;8.370;2023-03-23T15:16:23;0.47;;;0.40;;
18857;SDS011;9558;50.178;8.370;2023-03-23T15:18:53;1.00;;;0.30;;
18857;SDS011;9558;50.178;8.370;2023-03-23T15:21:27;1.55;;;0.70;;
18857;SDS011;9558;50.178;8.370;2023-03-23T15:23:56;3.55;;;0.40;;
18857;SDS011;9558;50.178;8.370;2023-03-23T15:26:31;0.68;;;0.40;;
18857;SDS011;9558;50.178;8.370;2023-03-23T15:29:10;1.40;;;0.50;;
18857;SDS011;9558;50.178;8.370;2023-03-23T15:31:41;0.52;;;0.40;;
18857;SDS011;9558;50.178;8.370;2023-03-23T15:34:11;0.40;;;0.40;;
18857;SDS011;9558;50.178;8.370;2023-03-23T15:39:11;2.95;;;0.60;;
18857;SDS011;9558;50.178;8.370;2023-03-23T15:41:45;3.63;;;0.40;;
18857;SDS011;9558;50.178;8.370;2023-03-23T15:44:20;0.47;;;0.45;;
18857;SDS011;9558;50.178;8.370;2023-03-23T15:46:49;0.50;;;0.50;;
18857;SDS011;9558;50.178;8.370;2023-03-23T15:49:17;0.30;;;0.30;;
18857;SDS011;9558;50.178;8.370;2023-03-23T15:51:46;0.20;;;0.20;;